sensor_id;sensor_type;location;lat;lon;timestamp;temperature;humidity
6841;DHT22;3458;53.678;14.080;2024-02-26T00:01:26;8.40;99.90
6841;DHT22;3458;53.678;14.080;2024-02-26T00:03:51;8.40;99.90
6841;DHT22;3458;53.678;14.080;2024-02-26T00:06:17;8.30;99.90
6841;DHT22;3458;53.678;14.080;2024-02-26T00:08:44;8.30;99.90
6841;DHT22;3458;53.678;14.080;2024-02-26T00:11:09;8.30;99.90
6841;DHT22;3458;53.678;14.080;2024-02-26T00:13:35;8.20;99.90
6841;DHT22;3458;53.678;14.080;2024-02-26T00:16:01;8.20;99.90
6841;DHT22;3458;53.678;14.080;2024-02-26T00:18:27;8.20;99.90
6841;DHT22;3458;53.678;14.080;2024-02-26T00:20:52;8.20;99.90
6841;DHT22;3458;53.678;14.080;2024-02-26T00:23:18;8.20;99.90
6841;DHT22;3458;53.678;14.080;2024-02-26T00:25:43;8.10;99.90
6841;DHT22;3458;53.678;14.080;2024-02-26T00:28:10;8.00;99.90
6841;DHT22;3458;53.678;14.080;2024-02-26T00:30:35;8.00;99.90
6841;DHT22;3458;53.678;14.080;2024-02-26T00:33:01;8.00;99.90
6841;DHT22;3458;53.678;14.080;2024-02-26T00:35:27;8.00;99.90
6841;DHT22;3458;53.678;14.080;2024-02-26T00:37:52;7.90;99.90
6841;DHT22;3458;53.678;14.080;2024-02-26T00:40:18;7.90;99.90
6841;DHT22;3458;53.678;14.080;2024-02-26T00:42:43;7.80;99.90
6841;DHT22;3458;53.678;14.080;2024-02-26T00:45:12;7.80;99.90
6841;DHT22;3458;53.678;14.080;2024-02-26T00:47:37;7.80;99.90
6841;DHT22;3458;53.678;14.080;2024-02-26T00:50:03;7.70;99.90
6841;DHT22;3458;53.678;14.080;2024-02-26T00:52:29;7.70;99.90
6841;DHT22;3458;53.678;14.080;2024-02-26T00:54:54;7.60;99.90
6841;DHT22;3458;53.678;14.080;2024-02-26T00:57:20;7.60;99.90
6841;DHT22;3458;53.678;14.080;2024-02-26T00:59:45;7.60;99.90
6841;DHT22;3458;53.678;14.080;2024-02-26T01:02:10;7.50;99.90
6841;DHT22;3458;53.678;14.080;2024-02-26T01:04:36;7.50;99.90
6841;DHT22;3458;53.678;14.080;2024-02-26T01:07:02;7.50;99.90
6841;DHT22;3458;53.678;14.080;2024-02-26T01:09:28;7.40;99.90
6841;DHT22;3458;53.678;14.080;2024-02-26T01:11:53;7.40;99.90
6841;DHT22;3458;53.678;14.080;2024-02-26T01:14:19;7.40;99.90
6841;DHT22;3458;53.678;14.080;2024-02-26T01:16:44;7.40;99.90
6841;DHT22;3458;53.678;14.080;2024-02-26T01:19:10;7.30;99.90
6841;DHT22;3458;53.678;14.080;2024-02-26T01:21:35;7.30;99.90
6841;DHT22;3458;53.678;14.080;2024-02-26T01:24:01;7.20;99.90
6841;DHT22;3458;53.678;14.080;2024-02-26T01:26:26;7.20;99.90
6841;DHT22;3458;53.678;14.080;2024-02-26T01:28:52;7.20;99.90
6841;DHT22;3458;53.678;14.080;2024-02-26T01:31:17;7.20;99.90
6841;DHT22;3458;53.678;14.080;2024-02-26T01:33:43;7.10;99.90
6841;DHT22;3458;53.678;14.080;2024-02-26T01:36:08;7.10;99.90
6841;DHT22;3458;53.678;14.080;2024-02-26T01:38:34;7.10;99.90
6841;DHT22;3458;53.678;14.080;2024-02-26T01:40:59;7.10;99.90
6841;DHT22;3458;53.678;14.080;2024-02-26T01:43:25;7.00;99.90
6841;DHT22;3458;53.678;14.080;2024-02-26T01:45:50;7.00;99.90
6841;DHT22;3458;53.678;14.080;2024-02-26T01:48:16;7.00;99.90
6841;DHT22;3458;53.678;14.080;2024-02-26T01:50:42;7.00;99.90
6841;DHT22;3458;53.678;14.080;2024-02-26T01:53:08;7.00;99.90
6841;DHT22;3458;53.678;14.080;2024-02-26T01:55:34;7.00;99.90
6841;DHT22;3458;53.678;14.080;2024-02-26T01:58:00;6.90;99.90
6841;DHT22;3458;53.678;14.080;2024-02-26T02:00:26;6.90;99.90
6841;DHT22;3458;53.678;14.080;2024-02-26T02:02:51;6.90;99.90
6841;DHT22;3458;53.678;14.080;2024-02-26T02:05:18;6.80;99.90
6841;DHT22;3458;53.678;14.080;2024-02-26T02:07:45;6.80;99.90
6841;DHT22;3458;53.678;14.080;2024-02-26T02:10:11;6.80;99.90
6841;DHT22;3458;53.678;14.080;2024-02-26T02:12:37;6.80;99.90
6841;DHT22;3458;53.678;14.080;2024-02-26T02:15:05;6.70;99.90
6841;DHT22;3458;53.678;14.080;2024-02-26T02:17:31;6.70;99.90
6841;DHT22;3458;53.678;14.080;2024-02-26T02:19:57;6.70;99.90
6841;DHT22;3458;53.678;14.080;2024-02-26T02:22:22;6.60;99.90
6841;DHT22;3458;53.678;14.080;2024-02-26T02:24:49;6.60;99.90
6841;DHT22;3458;53.678;14.080;2024-02-26T02:27:15;6.60;99.90
6841;DHT22;3458;53.678;14.080;2024-02-26T02:29:40;6.60;99.90
6841;DHT22;3458;53.678;14.080;2024-02-26T02:32:06;6.50;99.90
6841;DHT22;3458;53.678;14.080;2024-02-26T02:34:32;6.50;99.90
6841;DHT22;3458;53.678;14.080;2024-02-26T02:36:59;6.40;99.90
6841;DHT22;3458;53.678;14.080;2024-02-26T02:39:25;6.40;99.90
6841;DHT22;3458;53.678;14.080;2024-02-26T02:41:50;6.40;99.90
6841;DHT22;3458;53.678;14.080;2024-02-26T02:44:16;6.30;99.90
6841;DHT22;3458;53.678;14.080;2024-02-26T02:46:42;6.30;99.90
6841;DHT22;3458;53.678;14.080;2024-02-26T02:49:09;6.30;99.90
6841;DHT22;3458;53.678;14.080;2024-02-26T02:51:35;6.30;99.90
6841;DHT22;3458;53.678;14.080;2024-02-26T02:54:01;6.20;99.90
6841;DHT22;3458;53.678;14.080;2024-02-26T02:56:26;6.20;99.90
6841;DHT22;3458;53.678;14.080;2024-02-26T02:58:52;6.10;99.90
6841;DHT22;3458;53.678;14.080;2024-02-26T03:01:17;6.10;99.90
6841;DHT22;3458;53.678;14.080;2024-02-26T03:03:43;6.10;99.90
6841;DHT22;3458;53.678;14.080;2024-02-26T03:06:08;6.10;99.90
6841;DHT22;3458;53.678;14.080;2024-02-26T03:08:33;6.00;99.90
6841;DHT22;3458;53.678;14.080;2024-02-26T03:11:03;6.00;99.90
6841;DHT22;3458;53.678;14.080;2024-02-26T03:13:29;6.00;99.90
6841;DHT22;3458;53.678;14.080;2024-02-26T03:15:54;5.90;99.90
6841;DHT22;3458;53.678;14.080;2024-02-26T03:18:20;5.90;99.90
6841;DHT22;3458;53.678;14.080;2024-02-26T03:20:45;5.90;99.90
6841;DHT22;3458;53.678;14.080;2024-02-26T03:23:11;5.80;99.90
6841;DHT22;3458;53.678;14.080;2024-02-26T03:25:42;5.80;99.90
6841;DHT22;3458;53.678;14.080;2024-02-26T03:28:08;5.80;99.90
6841;DHT22;3458;53.678;14.080;2024-02-26T03:30:33;5.70;99.90
6841;DHT22;3458;53.678;14.080;2024-02-26T03:32:58;5.70;99.90
6841;DHT22;3458;53.678;14.080;2024-02-26T03:35:24;5.70;99.90
6841;DHT22;3458;53.678;14.080;2024-02-26T03:37:49;5.60;99.90
6841;DHT22;3458;53.678;14.080;2024-02-26T03:40:17;5.60;99.90
6841;DHT22;3458;53.678;14.080;2024-02-26T03:42:44;5.60;99.90
6841;DHT22;3458;53.678;14.080;2024-02-26T03:45:10;5.60;99.90
6841;DHT22;3458;53.678;14.080;2024-02-26T03:47:38;5.60;99.90
6841;DHT22;3458;53.678;14.080;2024-02-26T03:50:05;5.60;99.90
6841;DHT22;3458;53.678;14.080;2024-02-26T03:52:32;5.50;99.90
6841;DHT22;3458;53.678;14.080;2024-02-26T03:54:57;5.50;99.90
6841;DHT22;3458;53.678;14.080;2024-02-26T03:57:23;5.40;99.90
6841;DHT22;3458;53.678;14.080;2024-02-26T03:59:48;5.40;99.90
6841;DHT22;3458;53.678;14.080;2024-02-26T04:02:14;5.40;99.90
6841;DHT22;3458;53.678;14.080;2024-02-26T04:04:39;5.40;99.90
6841;DHT22;3458;53.678;14.080;2024-02-26T04:07:05;5.30;99.90
6841;DHT22;3458;53.678;14.080;2024-02-26T04:09:33;5.30;99.90
6841;DHT22;3458;53.678;14.080;2024-02-26T04:11:59;5.30;99.90
6841;DHT22;3458;53.678;14.080;2024-02-26T04:14:24;5.30;99.90
6841;DHT22;3458;53.678;14.080;2024-02-26T04:16:50;5.30;99.90
6841;DHT22;3458;53.678;14.080;2024-02-26T04:19:17;5.30;99.90
6841;DHT22;3458;53.678;14.080;2024-02-26T04:21:43;5.20;99.90
6841;DHT22;3458;53.678;14.080;2024-02-26T04:24:08;5.20;99.90
6841;DHT22;3458;53.678;14.080;2024-02-26T04:26:34;5.20;99.90
6841;DHT22;3458;53.678;14.080;2024-02-26T04:29:00;5.20;99.90
6841;DHT22;3458;53.678;14.080;2024-02-26T04:31:25;5.20;99.90
6841;DHT22;3458;53.678;14.080;2024-02-26T04:33:51;5.10;99.90
6841;DHT22;3458;53.678;14.080;2024-02-26T04:36:17;5.10;99.90
6841;DHT22;3458;53.678;14.080;2024-02-26T04:38:46;5.10;99.90
6841;DHT22;3458;53.678;14.080;2024-02-26T04:41:11;5.10;99.90
6841;DHT22;3458;53.678;14.080;2024-02-26T04:43:37;5.10;99.90
6841;DHT22;3458;53.678;14.080;2024-02-26T04:46:07;5.10;99.90
6841;DHT22;3458;53.678;14.080;2024-02-26T04:48:34;5.00;99.90
6841;DHT22;3458;53.678;14.080;2024-02-26T04:50:59;5.00;99.90
6841;DHT22;3458;53.678;14.080;2024-02-26T04:53:25;4.90;99.90
6841;DHT22;3458;53.678;14.080;2024-02-26T04:55:50;4.90;99.90
6841;DHT22;3458;53.678;14.080;2024-02-26T04:58:15;4.90;99.90
6841;DHT22;3458;53.678;14.080;2024-02-26T05:00:41;4.90;99.90
6841;DHT22;3458;53.678;14.080;2024-02-26T05:03:06;4.90;99.90
6841;DHT22;3458;53.678;14.080;2024-02-26T05:05:33;4.90;99.90
6841;DHT22;3458;53.678;14.080;2024-02-26T05:07:58;4.90;99.90
6841;DHT22;3458;53.678;14.080;2024-02-26T05:10:24;4.80;99.90
6841;DHT22;3458;53.678;14.080;2024-02-26T05:12:49;4.80;99.90
6841;DHT22;3458;53.678;14.080;2024-02-26T05:15:15;4.80;99.90
6841;DHT22;3458;53.678;14.080;2024-02-26T05:17:44;4.80;99.90
6841;DHT22;3458;53.678;14.080;2024-02-26T05:20:10;4.70;99.90
6841;DHT22;3458;53.678;14.080;2024-02-26T05:22:35;4.80;99.90
6841;DHT22;3458;53.678;14.080;2024-02-26T05:25:01;4.70;99.90
6841;DHT22;3458;53.678;14.080;2024-02-26T05:27:26;4.70;99.90
6841;DHT22;3458;53.678;14.080;2024-02-26T05:29:52;4.70;99.90
6841;DHT22;3458;53.678;14.080;2024-02-26T05:32:19;4.60;99.90
6841;DHT22;3458;53.678;14.080;2024-02-26T05:34:44;4.60;99.90
6841;DHT22;3458;53.678;14.080;2024-02-26T05:37:10;4.60;99.90
6841;DHT22;3458;53.678;14.080;2024-02-26T05:39:36;4.60;99.90
6841;DHT22;3458;53.678;14.080;2024-02-26T05:42:02;4.60;99.90
6841;DHT22;3458;53.678;14.080;2024-02-26T05:44:28;4.50;99.90
6841;DHT22;3458;53.678;14.080;2024-02-26T05:46:54;4.50;99.90
6841;DHT22;3458;53.678;14.080;2024-02-26T05:49:19;4.60;99.90
6841;DHT22;3458;53.678;14.080;2024-02-26T05:51:45;4.60;99.90
6841;DHT22;3458;53.678;14.080;2024-02-26T05:54:10;4.60;99.90
6841;DHT22;3458;53.678;14.080;2024-02-26T05:56:36;4.60;99.90
6841;DHT22;3458;53.678;14.080;2024-02-26T05:59:02;4.60;99.90
6841;DHT22;3458;53.678;14.080;2024-02-26T06:01:28;4.50;99.90
6841;DHT22;3458;53.678;14.080;2024-02-26T06:03:53;4.50;99.90
6841;DHT22;3458;53.678;14.080;2024-02-26T06:06:19;4.50;99.90
6841;DHT22;3458;53.678;14.080;2024-02-26T06:08:44;4.50;99.90
6841;DHT22;3458;53.678;14.080;2024-02-26T06:11:10;4.50;99.90
6841;DHT22;3458;53.678;14.080;2024-02-26T06:13:35;4.50;99.90
6841;DHT22;3458;53.678;14.080;2024-02-26T06:16:01;4.40;99.90
6841;DHT22;3458;53.678;14.080;2024-02-26T06:18:27;4.50;99.90
6841;DHT22;3458;53.678;14.080;2024-02-26T06:20:53;4.50;99.90
6841;DHT22;3458;53.678;14.080;2024-02-26T06:23:18;4.40;99.90
6841;DHT22;3458;53.678;14.080;2024-02-26T06:25:44;4.40;99.90
6841;DHT22;3458;53.678;14.080;2024-02-26T06:28:09;4.40;99.90
6841;DHT22;3458;53.678;14.080;2024-02-26T06:30:35;4.40;99.90
6841;DHT22;3458;53.678;14.080;2024-02-26T06:33:01;4.40;99.90
6841;DHT22;3458;53.678;14.080;2024-02-26T06:35:27;4.40;99.90
6841;DHT22;3458;53.678;14.080;2024-02-26T06:37:52;4.40;99.90
6841;DHT22;3458;53.678;14.080;2024-02-26T06:40:19;4.50;99.90
6841;DHT22;3458;53.678;14.080;2024-02-26T06:42:44;4.50;99.90
6841;DHT22;3458;53.678;14.080;2024-02-26T06:45:10;4.50;99.90
6841;DHT22;3458;53.678;14.080;2024-02-26T06:47:36;4.50;99.90
6841;DHT22;3458;53.678;14.080;2024-02-26T06:50:01;4.50;99.90
6841;DHT22;3458;53.678;14.080;2024-02-26T06:52:27;4.60;99.90
6841;DHT22;3458;53.678;14.080;2024-02-26T06:54:53;4.60;99.90
6841;DHT22;3458;53.678;14.080;2024-02-26T06:57:21;4.60;99.90
6841;DHT22;3458;53.678;14.080;2024-02-26T06:59:47;4.60;99.90
6841;DHT22;3458;53.678;14.080;2024-02-26T07:02:13;4.70;99.90
6841;DHT22;3458;53.678;14.080;2024-02-26T07:04:39;4.80;99.90
6841;DHT22;3458;53.678;14.080;2024-02-26T07:07:04;4.80;99.90
6841;DHT22;3458;53.678;14.080;2024-02-26T07:09:30;4.90;99.90
6841;DHT22;3458;53.678;14.080;2024-02-26T07:11:55;4.90;99.90
6841;DHT22;3458;53.678;14.080;2024-02-26T07:14:21;4.90;99.90
6841;DHT22;3458;53.678;14.080;2024-02-26T07:16:46;5.00;99.90
6841;DHT22;3458;53.678;14.080;2024-02-26T07:19:12;5.00;99.90
6841;DHT22;3458;53.678;14.080;2024-02-26T07:21:37;5.00;99.90
6841;DHT22;3458;53.678;14.080;2024-02-26T07:24:05;5.10;99.90
6841;DHT22;3458;53.678;14.080;2024-02-26T07:26:30;5.10;99.90
6841;DHT22;3458;53.678;14.080;2024-02-26T07:28:56;5.10;99.90
6841;DHT22;3458;53.678;14.080;2024-02-26T07:31:21;5.20;99.90
6841;DHT22;3458;53.678;14.080;2024-02-26T07:33:47;5.20;99.90
6841;DHT22;3458;53.678;14.080;2024-02-26T07:36:12;5.20;99.90
6841;DHT22;3458;53.678;14.080;2024-02-26T07:38:38;5.30;99.90
6841;DHT22;3458;53.678;14.080;2024-02-26T07:41:04;5.30;99.90
6841;DHT22;3458;53.678;14.080;2024-02-26T07:43:30;5.40;99.90
6841;DHT22;3458;53.678;14.080;2024-02-26T07:45:55;5.40;99.90
6841;DHT22;3458;53.678;14.080;2024-02-26T07:48:21;5.40;99.90
6841;DHT22;3458;53.678;14.080;2024-02-26T07:50:46;5.40;99.90
6841;DHT22;3458;53.678;14.080;2024-02-26T07:53:12;5.40;99.90
6841;DHT22;3458;53.678;14.080;2024-02-26T07:55:38;5.40;99.90
6841;DHT22;3458;53.678;14.080;2024-02-26T07:58:04;5.40;99.90
6841;DHT22;3458;53.678;14.080;2024-02-26T08:00:29;5.50;99.90
6841;DHT22;3458;53.678;14.080;2024-02-26T08:02:55;5.60;99.90
6841;DHT22;3458;53.678;14.080;2024-02-26T08:05:20;5.70;99.90
6841;DHT22;3458;53.678;14.080;2024-02-26T08:07:46;5.70;99.90
6841;DHT22;3458;53.678;14.080;2024-02-26T08:10:11;5.80;99.90
6841;DHT22;3458;53.678;14.080;2024-02-26T08:12:37;5.80;99.90
6841;DHT22;3458;53.678;14.080;2024-02-26T08:15:03;5.90;99.90
6841;DHT22;3458;53.678;14.080;2024-02-26T08:17:28;6.00;99.90
6841;DHT22;3458;53.678;14.080;2024-02-26T08:19:54;6.20;99.90
6841;DHT22;3458;53.678;14.080;2024-02-26T08:22:19;6.20;99.90
6841;DHT22;3458;53.678;14.080;2024-02-26T08:24:45;6.30;99.90
6841;DHT22;3458;53.678;14.080;2024-02-26T08:27:10;6.40;99.90
6841;DHT22;3458;53.678;14.080;2024-02-26T08:29:36;6.50;99.90
6841;DHT22;3458;53.678;14.080;2024-02-26T08:32:01;6.60;99.90
6841;DHT22;3458;53.678;14.080;2024-02-26T08:34:27;6.70;99.90
6841;DHT22;3458;53.678;14.080;2024-02-26T08:36:52;6.90;99.90
6841;DHT22;3458;53.678;14.080;2024-02-26T08:39:18;7.00;99.90
6841;DHT22;3458;53.678;14.080;2024-02-26T08:41:44;7.10;99.90
6841;DHT22;3458;53.678;14.080;2024-02-26T08:44:10;7.20;99.90
6841;DHT22;3458;53.678;14.080;2024-02-26T08:46:35;7.40;99.90
6841;DHT22;3458;53.678;14.080;2024-02-26T08:49:01;7.40;99.90
6841;DHT22;3458;53.678;14.080;2024-02-26T08:51:26;7.50;99.90
6841;DHT22;3458;53.678;14.080;2024-02-26T08:53:52;7.50;99.90
6841;DHT22;3458;53.678;14.080;2024-02-26T08:56:19;7.60;99.90
6841;DHT22;3458;53.678;14.080;2024-02-26T08:58:47;7.70;99.90
6841;DHT22;3458;53.678;14.080;2024-02-26T09:01:14;7.70;99.90
6841;DHT22;3458;53.678;14.080;2024-02-26T09:03:40;7.80;99.90
6841;DHT22;3458;53.678;14.080;2024-02-26T09:06:05;7.90;99.90
6841;DHT22;3458;53.678;14.080;2024-02-26T09:08:34;8.00;99.90
6841;DHT22;3458;53.678;14.080;2024-02-26T09:11:01;8.10;99.90
6841;DHT22;3458;53.678;14.080;2024-02-26T09:13:27;8.20;99.90
6841;DHT22;3458;53.678;14.080;2024-02-26T09:15:52;8.30;99.90
6841;DHT22;3458;53.678;14.080;2024-02-26T09:18:18;8.40;99.90
6841;DHT22;3458;53.678;14.080;2024-02-26T09:20:43;8.40;99.90
6841;DHT22;3458;53.678;14.080;2024-02-26T09:23:09;8.40;99.90
6841;DHT22;3458;53.678;14.080;2024-02-26T09:25:35;8.30;99.90
6841;DHT22;3458;53.678;14.080;2024-02-26T09:28:01;8.40;99.90
6841;DHT22;3458;53.678;14.080;2024-02-26T09:30:26;8.50;99.90
6841;DHT22;3458;53.678;14.080;2024-02-26T09:32:52;8.60;99.90
6841;DHT22;3458;53.678;14.080;2024-02-26T09:35:17;8.60;99.90
6841;DHT22;3458;53.678;14.080;2024-02-26T09:37:43;8.70;99.90
6841;DHT22;3458;53.678;14.080;2024-02-26T09:40:10;8.80;99.90
6841;DHT22;3458;53.678;14.080;2024-02-26T09:42:37;9.00;99.90
6841;DHT22;3458;53.678;14.080;2024-02-26T09:45:06;9.10;99.90
6841;DHT22;3458;53.678;14.080;2024-02-26T09:47:36;9.30;99.90
6841;DHT22;3458;53.678;14.080;2024-02-26T09:50:02;9.40;99.90
6841;DHT22;3458;53.678;14.080;2024-02-26T09:52:28;9.60;99.90
6841;DHT22;3458;53.678;14.080;2024-02-26T09:54:56;9.60;99.90
6841;DHT22;3458;53.678;14.080;2024-02-26T09:57:22;9.60;99.90
6841;DHT22;3458;53.678;14.080;2024-02-26T09:59:51;9.70;99.90
6841;DHT22;3458;53.678;14.080;2024-02-26T10:02:19;9.80;99.90
6841;DHT22;3458;53.678;14.080;2024-02-26T10:04:47;9.90;99.90
6841;DHT22;3458;53.678;14.080;2024-02-26T10:07:13;9.90;99.90
6841;DHT22;3458;53.678;14.080;2024-02-26T10:09:39;10.00;99.90
6841;DHT22;3458;53.678;14.080;2024-02-26T10:12:07;9.90;99.90
6841;DHT22;3458;53.678;14.080;2024-02-26T10:14:34;9.90;99.90
6841;DHT22;3458;53.678;14.080;2024-02-26T10:16:59;9.90;99.90
6841;DHT22;3458;53.678;14.080;2024-02-26T10:19:29;9.90;99.90
6841;DHT22;3458;53.678;14.080;2024-02-26T10:21:59;9.90;99.90
6841;DHT22;3458;53.678;14.080;2024-02-26T10:24:26;9.90;99.90
6841;DHT22;3458;53.678;14.080;2024-02-26T10:26:55;9.90;99.90
6841;DHT22;3458;53.678;14.080;2024-02-26T10:29:21;10.00;99.90
6841;DHT22;3458;53.678;14.080;2024-02-26T10:31:47;10.00;99.90
6841;DHT22;3458;53.678;14.080;2024-02-26T10:34:14;10.00;99.90
6841;DHT22;3458;53.678;14.080;2024-02-26T10:36:40;10.10;99.90
6841;DHT22;3458;53.678;14.080;2024-02-26T10:39:11;10.10;99.90
6841;DHT22;3458;53.678;14.080;2024-02-26T10:41:37;10.10;99.90
6841;DHT22;3458;53.678;14.080;2024-02-26T10:44:03;10.20;99.90
6841;DHT22;3458;53.678;14.080;2024-02-26T10:46:29;10.30;99.90
6841;DHT22;3458;53.678;14.080;2024-02-26T10:48:56;10.50;99.90
6841;DHT22;3458;53.678;14.080;2024-02-26T10:51:29;10.50;99.90
6841;DHT22;3458;53.678;14.080;2024-02-26T10:53:56;10.70;99.90
6841;DHT22;3458;53.678;14.080;2024-02-26T10:56:25;10.80;99.90
6841;DHT22;3458;53.678;14.080;2024-02-26T10:58:53;10.80;99.90
6841;DHT22;3458;53.678;14.080;2024-02-26T11:01:19;10.90;99.90
6841;DHT22;3458;53.678;14.080;2024-02-26T11:03:47;10.90;99.90
6841;DHT22;3458;53.678;14.080;2024-02-26T11:06:14;11.10;99.90
6841;DHT22;3458;53.678;14.080;2024-02-26T11:08:41;11.20;99.90
6841;DHT22;3458;53.678;14.080;2024-02-26T11:11:07;11.30;99.90
6841;DHT22;3458;53.678;14.080;2024-02-26T11:13:33;11.30;99.90
6841;DHT22;3458;53.678;14.080;2024-02-26T11:16:03;11.40;99.90
6841;DHT22;3458;53.678;14.080;2024-02-26T11:18:30;11.40;99.90
6841;DHT22;3458;53.678;14.080;2024-02-26T11:20:56;11.50;99.90
6841;DHT22;3458;53.678;14.080;2024-02-26T11:23:23;11.60;99.90
6841;DHT22;3458;53.678;14.080;2024-02-26T11:25:54;11.50;99.90
6841;DHT22;3458;53.678;14.080;2024-02-26T11:28:21;11.60;99.90
6841;DHT22;3458;53.678;14.080;2024-02-26T11:30:49;11.90;99.90
6841;DHT22;3458;53.678;14.080;2024-02-26T11:33:15;12.20;99.90
6841;DHT22;3458;53.678;14.080;2024-02-26T11:35:41;12.20;99.90
6841;DHT22;3458;53.678;14.080;2024-02-26T11:38:07;12.30;99.90
6841;DHT22;3458;53.678;14.080;2024-02-26T11:40:37;12.20;99.90
6841;DHT22;3458;53.678;14.080;2024-02-26T11:43:05;12.20;99.90
6841;DHT22;3458;53.678;14.080;2024-02-26T11:48:25;12.40;99.90
6841;DHT22;3458;53.678;14.080;2024-02-26T11:50:54;12.40;99.90
6841;DHT22;3458;53.678;14.080;2024-02-26T11:53:32;12.40;99.90
6841;DHT22;3458;53.678;14.080;2024-02-26T11:56:33;12.30;99.90
6841;DHT22;3458;53.678;14.080;2024-02-26T11:59:09;12.20;99.90
6841;DHT22;3458;53.678;14.080;2024-02-26T12:01:42;12.30;99.90
6841;DHT22;3458;53.678;14.080;2024-02-26T12:04:18;12.50;99.90
6841;DHT22;3458;53.678;14.080;2024-02-26T12:06:53;12.40;99.90
6841;DHT22;3458;53.678;14.080;2024-02-26T12:12:02;12.20;99.90
6841;DHT22;3458;53.678;14.080;2024-02-26T12:14:28;12.20;99.90
6841;DHT22;3458;53.678;14.080;2024-02-26T12:16:55;12.30;99.90
6841;DHT22;3458;53.678;14.080;2024-02-26T12:19:21;12.30;99.90
6841;DHT22;3458;53.678;14.080;2024-02-26T12:21:51;12.20;99.90
6841;DHT22;3458;53.678;14.080;2024-02-26T12:24:19;12.20;99.90
6841;DHT22;3458;53.678;14.080;2024-02-26T12:26:45;12.10;99.90
6841;DHT22;3458;53.678;14.080;2024-02-26T12:29:11;11.90;99.90
6841;DHT22;3458;53.678;14.080;2024-02-26T12:31:37;11.70;99.90
6841;DHT22;3458;53.678;14.080;2024-02-26T12:34:05;11.70;99.90
6841;DHT22;3458;53.678;14.080;2024-02-26T12:36:31;11.60;99.90
6841;DHT22;3458;53.678;14.080;2024-02-26T12:38:57;11.50;99.90
6841;DHT22;3458;53.678;14.080;2024-02-26T12:41:23;11.50;99.90
6841;DHT22;3458;53.678;14.080;2024-02-26T12:43:49;11.40;99.90
6841;DHT22;3458;53.678;14.080;2024-02-26T12:46:15;11.40;99.90
6841;DHT22;3458;53.678;14.080;2024-02-26T12:48:44;11.50;99.90
6841;DHT22;3458;53.678;14.080;2024-02-26T12:51:12;11.50;99.90
6841;DHT22;3458;53.678;14.080;2024-02-26T12:53:38;11.50;99.90
6841;DHT22;3458;53.678;14.080;2024-02-26T12:56:05;11.60;99.90
6841;DHT22;3458;53.678;14.080;2024-02-26T12:58:33;11.60;99.90
6841;DHT22;3458;53.678;14.080;2024-02-26T13:00:59;11.60;99.90
6841;DHT22;3458;53.678;14.080;2024-02-26T13:03:24;11.60;99.90
6841;DHT22;3458;53.678;14.080;2024-02-26T13:05:50;11.70;99.90
6841;DHT22;3458;53.678;14.080;2024-02-26T13:08:22;11.60;99.90
6841;DHT22;3458;53.678;14.080;2024-02-26T13:10:48;11.70;99.90
6841;DHT22;3458;53.678;14.080;2024-02-26T13:13:16;11.80;99.90
6841;DHT22;3458;53.678;14.080;2024-02-26T13:15:43;11.80;99.90
6841;DHT22;3458;53.678;14.080;2024-02-26T13:18:15;11.80;99.90
6841;DHT22;3458;53.678;14.080;2024-02-26T13:20:41;11.90;99.90
6841;DHT22;3458;53.678;14.080;2024-02-26T13:23:10;11.90;99.90
6841;DHT22;3458;53.678;14.080;2024-02-26T13:25:36;11.80;99.90
6841;DHT22;3458;53.678;14.080;2024-02-26T13:28:09;11.70;99.90
6841;DHT22;3458;53.678;14.080;2024-02-26T13:30:35;11.70;99.90
6841;DHT22;3458;53.678;14.080;2024-02-26T13:33:08;11.70;99.90
6841;DHT22;3458;53.678;14.080;2024-02-26T13:35:34;11.70;99.90
6841;DHT22;3458;53.678;14.080;2024-02-26T13:38:00;11.90;99.90
6841;DHT22;3458;53.678;14.080;2024-02-26T13:40:26;12.00;99.90
6841;DHT22;3458;53.678;14.080;2024-02-26T13:42:51;12.10;99.90
6841;DHT22;3458;53.678;14.080;2024-02-26T13:45:18;12.10;99.90
6841;DHT22;3458;53.678;14.080;2024-02-26T13:47:43;12.10;99.90
6841;DHT22;3458;53.678;14.080;2024-02-26T13:50:09;11.90;99.90
6841;DHT22;3458;53.678;14.080;2024-02-26T13:52:35;11.80;99.90
6841;DHT22;3458;53.678;14.080;2024-02-26T13:55:00;11.70;99.90
6841;DHT22;3458;53.678;14.080;2024-02-26T13:57:27;11.60;99.90
6841;DHT22;3458;53.678;14.080;2024-02-26T13:59:54;11.50;99.90
6841;DHT22;3458;53.678;14.080;2024-02-26T14:02:19;11.50;99.90
6841;DHT22;3458;53.678;14.080;2024-02-26T14:04:46;11.50;99.90
6841;DHT22;3458;53.678;14.080;2024-02-26T14:07:12;11.40;99.90
6841;DHT22;3458;53.678;14.080;2024-02-26T14:09:37;11.30;99.90
6841;DHT22;3458;53.678;14.080;2024-02-26T14:12:03;11.10;99.90
6841;DHT22;3458;53.678;14.080;2024-02-26T14:14:29;11.10;99.90
6841;DHT22;3458;53.678;14.080;2024-02-26T14:16:58;11.00;99.90
6841;DHT22;3458;53.678;14.080;2024-02-26T14:19:23;11.00;99.90
6841;DHT22;3458;53.678;14.080;2024-02-26T14:21:49;10.90;99.90
6841;DHT22;3458;53.678;14.080;2024-02-26T14:24:14;10.90;99.90
6841;DHT22;3458;53.678;14.080;2024-02-26T14:26:40;10.90;99.90
6841;DHT22;3458;53.678;14.080;2024-02-26T14:29:06;10.90;99.90
6841;DHT22;3458;53.678;14.080;2024-02-26T14:31:32;10.90;99.90
6841;DHT22;3458;53.678;14.080;2024-02-26T14:33:57;10.90;99.90
6841;DHT22;3458;53.678;14.080;2024-02-26T14:36:23;10.80;99.90
6841;DHT22;3458;53.678;14.080;2024-02-26T14:38:50;10.80;99.90
6841;DHT22;3458;53.678;14.080;2024-02-26T14:41:16;10.70;99.90
6841;DHT22;3458;53.678;14.080;2024-02-26T14:43:41;10.50;99.90
6841;DHT22;3458;53.678;14.080;2024-02-26T14:46:07;10.50;99.90
6841;DHT22;3458;53.678;14.080;2024-02-26T14:48:33;10.40;99.90
6841;DHT22;3458;53.678;14.080;2024-02-26T14:50:59;10.40;99.90
6841;DHT22;3458;53.678;14.080;2024-02-26T14:53:25;10.40;99.90
6841;DHT22;3458;53.678;14.080;2024-02-26T14:55:51;10.30;99.90
6841;DHT22;3458;53.678;14.080;2024-02-26T14:58:17;10.30;99.90
6841;DHT22;3458;53.678;14.080;2024-02-26T15:00:42;10.20;99.90
6841;DHT22;3458;53.678;14.080;2024-02-26T15:03:08;10.10;99.90
6841;DHT22;3458;53.678;14.080;2024-02-26T15:05:34;10.10;99.90
6841;DHT22;3458;53.678;14.080;2024-02-26T15:08:02;10.10;99.90
6841;DHT22;3458;53.678;14.080;2024-02-26T15:10:28;10.10;99.90
6841;DHT22;3458;53.678;14.080;2024-02-26T15:12:56;10.00;99.90
6841;DHT22;3458;53.678;14.080;2024-02-26T15:15:22;10.00;99.90
6841;DHT22;3458;53.678;14.080;2024-02-26T15:17:48;10.00;99.90
6841;DHT22;3458;53.678;14.080;2024-02-26T15:20:17;10.00;99.90
6841;DHT22;3458;53.678;14.080;2024-02-26T15:22:43;9.90;99.90
6841;DHT22;3458;53.678;14.080;2024-02-26T15:25:09;9.80;99.90
6841;DHT22;3458;53.678;14.080;2024-02-26T15:27:35;9.80;99.90
6841;DHT22;3458;53.678;14.080;2024-02-26T15:30:01;9.80;99.90
6841;DHT22;3458;53.678;14.080;2024-02-26T15:32:27;9.70;99.90
6841;DHT22;3458;53.678;14.080;2024-02-26T15:34:53;9.60;99.90
6841;DHT22;3458;53.678;14.080;2024-02-26T15:37:19;9.60;99.90
6841;DHT22;3458;53.678;14.080;2024-02-26T15:39:44;9.60;99.90
6841;DHT22;3458;53.678;14.080;2024-02-26T15:42:10;9.60;99.90
6841;DHT22;3458;53.678;14.080;2024-02-26T15:44:37;9.70;99.90
6841;DHT22;3458;53.678;14.080;2024-02-26T15:47:03;9.60;99.90
6841;DHT22;3458;53.678;14.080;2024-02-26T15:49:30;9.60;99.90
6841;DHT22;3458;53.678;14.080;2024-02-26T15:51:56;9.50;99.90
6841;DHT22;3458;53.678;14.080;2024-02-26T15:54:21;9.60;99.90
6841;DHT22;3458;53.678;14.080;2024-02-26T15:56:46;9.50;99.90